sensor_id;sensor_type;location;lat;lon;timestamp;P1;durP1;ratioP1;P2;durP2;ratioP2
18190;SDS011;47004;51.366;12.348;2022-09-09T00:00:49;3.70;;;2.10;;
18190;SDS011;47004;51.366;12.348;2022-09-09T00:02:59;2.30;;;2.00;;
18190;SDS011;47004;51.366;12.348;2022-09-09T00:05:14;3.33;;;1.80;;
18190;SDS011;47004;51.366;12.348;2022-09-09T00:07:24;2.57;;;2.07;;
18190;SDS011;47004;51.366;12.348;2022-09-09T00:09:35;2.60;;;2.00;;
18190;SDS011;47004;51.366;12.348;2022-09-09T00:11:43;3.20;;;2.30;;
18190;SDS011;47004;51.366;12.348;2022-09-09T00:13:48;3.17;;;2.00;;
18190;SDS011;47004;51.366;12.348;2022-09-09T00:15:57;3.30;;;1.80;;
18190;SDS011;47004;51.366;12.348;2022-09-09T00:18:03;2.93;;;2.23;;
18190;SDS011;47004;51.366;12.348;2022-09-09T00:20:16;3.63;;;2.17;;
18190;SDS011;47004;51.366;12.348;2022-09-09T00:22:27;4.83;;;2.00;;
18190;SDS011;47004;51.366;12.348;2022-09-09T00:24:32;3.23;;;2.00;;
18190;SDS011;47004;51.366;12.348;2022-09-09T00:26:45;3.47;;;1.93;;
18190;SDS011;47004;51.366;12.348;2022-09-09T00:28:52;7.53;;;2.10;;
18190;SDS011;47004;51.366;12.348;2022-09-09T00:31:04;3.20;;;1.80;;
18190;SDS011;47004;51.366;12.348;2022-09-09T00:33:12;2.70;;;1.97;;
18190;SDS011;47004;51.366;12.348;2022-09-09T00:35:17;4.80;;;1.83;;
18190;SDS011;47004;51.366;12.348;2022-09-09T00:37:24;4.67;;;2.03;;
18190;SDS011;47004;51.366;12.348;2022-09-09T00:39:30;2.73;;;1.90;;
18190;SDS011;47004;51.366;12.348;2022-09-09T00:41:40;4.40;;;1.90;;
18190;SDS011;47004;51.366;12.348;2022-09-09T00:43:55;3.00;;;1.90;;
18190;SDS011;47004;51.366;12.348;2022-09-09T00:46:09;4.40;;;1.93;;
18190;SDS011;47004;51.366;12.348;2022-09-09T00:48:24;3.83;;;2.00;;
18190;SDS011;47004;51.366;12.348;2022-09-09T00:50:35;4.27;;;2.40;;
18190;SDS011;47004;51.366;12.348;2022-09-09T00:52:46;3.50;;;2.00;;
18190;SDS011;47004;51.366;12.348;2022-09-09T00:55:03;2.87;;;1.90;;
18190;SDS011;47004;51.366;12.348;2022-09-09T00:57:18;3.20;;;1.77;;
18190;SDS011;47004;51.366;12.348;2022-09-09T00:59:28;3.80;;;2.03;;
18190;SDS011;47004;51.366;12.348;2022-09-09T01:01:38;3.40;;;1.70;;
18190;SDS011;47004;51.366;12.348;2022-09-09T01:03:42;3.03;;;1.80;;
18190;SDS011;47004;51.366;12.348;2022-09-09T01:05:51;1.90;;;1.70;;
18190;SDS011;47004;51.366;12.348;2022-09-09T01:08:04;2.27;;;1.87;;
18190;SDS011;47004;51.366;12.348;2022-09-09T01:10:14;3.60;;;1.73;;
18190;SDS011;47004;51.366;12.348;2022-09-09T01:12:29;3.50;;;1.70;;
18190;SDS011;47004;51.366;12.348;2022-09-09T01:14:40;2.17;;;1.73;;
18190;SDS011;47004;51.366;12.348;2022-09-09T01:16:47;3.67;;;2.00;;
18190;SDS011;47004;51.366;12.348;2022-09-09T01:18:51;3.43;;;1.83;;
18190;SDS011;47004;51.366;12.348;2022-09-09T01:20:55;4.30;;;2.00;;
18190;SDS011;47004;51.366;12.348;2022-09-09T01:23:07;1.93;;;1.63;;
18190;SDS011;47004;51.366;12.348;2022-09-09T01:25:29;1.97;;;1.77;;
18190;SDS011;47004;51.366;12.348;2022-09-09T01:28:10;4.33;;;2.03;;
18190;SDS011;47004;51.366;12.348;2022-09-09T01:30:15;2.13;;;1.77;;
18190;SDS011;47004;51.366;12.348;2022-09-09T01:32:39;2.00;;;1.80;;
18190;SDS011;47004;51.366;12.348;2022-09-09T01:34:43;2.63;;;1.50;;
18190;SDS011;47004;51.366;12.348;2022-09-09T01:36:47;3.60;;;1.87;;
18190;SDS011;47004;51.366;12.348;2022-09-09T01:38:54;2.00;;;1.80;;
18190;SDS011;47004;51.366;12.348;2022-09-09T01:40:57;3.40;;;1.93;;
18190;SDS011;47004;51.366;12.348;2022-09-09T01:43:00;3.57;;;1.60;;
18190;SDS011;47004;51.366;12.348;2022-09-09T01:45:03;3.40;;;1.90;;
18190;SDS011;47004;51.366;12.348;2022-09-09T01:47:06;2.50;;;1.80;;
18190;SDS011;47004;51.366;12.348;2022-09-09T01:49:08;2.63;;;1.87;;
18190;SDS011;47004;51.366;12.348;2022-09-09T01:51:11;3.07;;;2.10;;
18190;SDS011;47004;51.366;12.348;2022-09-09T01:53:13;2.67;;;1.80;;
18190;SDS011;47004;51.366;12.348;2022-09-09T01:55:17;3.50;;;1.87;;
18190;SDS011;47004;51.366;12.348;2022-09-09T01:57:29;3.10;;;1.87;;
18190;SDS011;47004;51.366;12.348;2022-09-09T01:59:45;3.33;;;1.80;;
18190;SDS011;47004;51.366;12.348;2022-09-09T02:01:57;2.10;;;1.73;;
18190;SDS011;47004;51.366;12.348;2022-09-09T02:04:11;2.80;;;1.93;;
18190;SDS011;47004;51.366;12.348;2022-09-09T02:06:24;2.30;;;1.80;;
18190;SDS011;47004;51.366;12.348;2022-09-09T02:08:32;2.30;;;1.67;;
18190;SDS011;47004;51.366;12.348;2022-09-09T02:10:42;2.87;;;1.70;;
18190;SDS011;47004;51.366;12.348;2022-09-09T02:12:48;4.57;;;2.00;;
18190;SDS011;47004;51.366;12.348;2022-09-09T02:14:58;1.63;;;1.50;;
18190;SDS011;47004;51.366;12.348;2022-09-09T02:17:06;2.80;;;1.80;;
18190;SDS011;47004;51.366;12.348;2022-09-09T02:19:11;1.87;;;1.63;;
18190;SDS011;47004;51.366;12.348;2022-09-09T02:21:21;2.93;;;1.63;;
18190;SDS011;47004;51.366;12.348;2022-09-09T02:23:24;2.77;;;2.13;;
18190;SDS011;47004;51.366;12.348;2022-09-09T02:25:28;4.90;;;1.93;;
18190;SDS011;47004;51.366;12.348;2022-09-09T02:27:30;3.57;;;2.03;;
18190;SDS011;47004;51.366;12.348;2022-09-09T02:29:34;3.83;;;2.07;;
18190;SDS011;47004;51.366;12.348;2022-09-09T02:31:41;4.73;;;1.90;;
18190;SDS011;47004;51.366;12.348;2022-09-09T02:33:46;2.87;;;1.80;;
18190;SDS011;47004;51.366;12.348;2022-09-09T02:35:52;3.60;;;1.90;;
18190;SDS011;47004;51.366;12.348;2022-09-09T02:38:02;3.53;;;1.60;;
18190;SDS011;47004;51.366;12.348;2022-09-09T02:40:09;3.00;;;1.60;;
18190;SDS011;47004;51.366;12.348;2022-09-09T02:42:13;3.60;;;1.80;;
18190;SDS011;47004;51.366;12.348;2022-09-09T02:44:16;4.80;;;1.80;;
18190;SDS011;47004;51.366;12.348;2022-09-09T02:46:28;2.47;;;1.57;;
18190;SDS011;47004;51.366;12.348;2022-09-09T02:48:42;5.97;;;1.93;;
18190;SDS011;47004;51.366;12.348;2022-09-09T02:50:52;2.47;;;1.80;;
18190;SDS011;47004;51.366;12.348;2022-09-09T02:53:02;6.50;;;2.00;;
18190;SDS011;47004;51.366;12.348;2022-09-09T02:55:12;5.67;;;1.90;;
18190;SDS011;47004;51.366;12.348;2022-09-09T02:57:22;4.80;;;1.50;;
18190;SDS011;47004;51.366;12.348;2022-09-09T02:59:28;4.07;;;1.70;;
18190;SDS011;47004;51.366;12.348;2022-09-09T03:01:30;2.33;;;1.70;;
18190;SDS011;47004;51.366;12.348;2022-09-09T03:03:32;2.23;;;1.77;;
18190;SDS011;47004;51.366;12.348;2022-09-09T03:05:36;3.20;;;1.60;;
18190;SDS011;47004;51.366;12.348;2022-09-09T03:07:38;3.37;;;1.83;;
18190;SDS011;47004;51.366;12.348;2022-09-09T03:09:41;3.90;;;1.60;;
18190;SDS011;47004;51.366;12.348;2022-09-09T03:11:43;4.37;;;1.97;;
18190;SDS011;47004;51.366;12.348;2022-09-09T03:13:45;2.93;;;1.60;;
18190;SDS011;47004;51.366;12.348;2022-09-09T03:15:47;3.03;;;1.60;;
18190;SDS011;47004;51.366;12.348;2022-09-09T03:17:51;4.73;;;2.10;;
18190;SDS011;47004;51.366;12.348;2022-09-09T03:19:54;3.70;;;2.00;;
18190;SDS011;47004;51.366;12.348;2022-09-09T03:21:59;3.43;;;1.53;;
18190;SDS011;47004;51.366;12.348;2022-09-09T03:24:01;3.47;;;1.87;;
18190;SDS011;47004;51.366;12.348;2022-09-09T03:26:04;3.67;;;1.57;;
18190;SDS011;47004;51.366;12.348;2022-09-09T03:28:06;2.27;;;1.70;;
18190;SDS011;47004;51.366;12.348;2022-09-09T03:30:08;2.97;;;1.70;;
18190;SDS011;47004;51.366;12.348;2022-09-09T03:32:11;2.63;;;1.57;;
18190;SDS011;47004;51.366;12.348;2022-09-09T03:34:13;3.13;;;1.70;;
18190;SDS011;47004;51.366;12.348;2022-09-09T03:36:15;3.57;;;1.70;;
18190;SDS011;47004;51.366;12.348;2022-09-09T03:38:18;5.50;;;1.67;;
18190;SDS011;47004;51.366;12.348;2022-09-09T03:40:20;3.13;;;1.77;;
18190;SDS011;47004;51.366;12.348;2022-09-09T03:42:22;1.80;;;1.60;;
18190;SDS011;47004;51.366;12.348;2022-09-09T03:44:23;1.90;;;1.60;;
18190;SDS011;47004;51.366;12.348;2022-09-09T03:46:25;2.10;;;1.60;;
18190;SDS011;47004;51.366;12.348;2022-09-09T03:48:27;3.40;;;1.93;;
18190;SDS011;47004;51.366;12.348;2022-09-09T03:50:29;3.27;;;1.60;;
18190;SDS011;47004;51.366;12.348;2022-09-09T03:52:33;2.10;;;1.77;;
18190;SDS011;47004;51.366;12.348;2022-09-09T03:54:38;2.07;;;1.70;;
18190;SDS011;47004;51.366;12.348;2022-09-09T03:56:42;3.53;;;1.77;;
18190;SDS011;47004;51.366;12.348;2022-09-09T03:58:44;1.90;;;1.60;;
18190;SDS011;47004;51.366;12.348;2022-09-09T04:00:52;2.27;;;1.60;;
18190;SDS011;47004;51.366;12.348;2022-09-09T04:02:55;1.93;;;1.47;;
18190;SDS011;47004;51.366;12.348;2022-09-09T04:04:57;2.10;;;1.47;;
18190;SDS011;47004;51.366;12.348;2022-09-09T04:06:59;2.80;;;1.60;;
18190;SDS011;47004;51.366;12.348;2022-09-09T04:09:01;2.97;;;1.53;;
18190;SDS011;47004;51.366;12.348;2022-09-09T04:11:05;2.80;;;1.33;;
18190;SDS011;47004;51.366;12.348;2022-09-09T04:13:07;4.67;;;2.00;;
18190;SDS011;47004;51.366;12.348;2022-09-09T04:15:09;3.10;;;1.40;;
18190;SDS011;47004;51.366;12.348;2022-09-09T04:17:11;3.13;;;1.70;;
18190;SDS011;47004;51.366;12.348;2022-09-09T04:19:13;4.23;;;1.70;;
18190;SDS011;47004;51.366;12.348;2022-09-09T04:21:15;4.93;;;1.83;;
18190;SDS011;47004;51.366;12.348;2022-09-09T04:23:17;1.67;;;1.40;;
18190;SDS011;47004;51.366;12.348;2022-09-09T04:25:20;3.07;;;1.53;;
18190;SDS011;47004;51.366;12.348;2022-09-09T04:27:23;2.10;;;1.70;;
18190;SDS011;47004;51.366;12.348;2022-09-09T04:29:25;2.10;;;1.43;;
18190;SDS011;47004;51.366;12.348;2022-09-09T04:31:27;2.47;;;1.50;;
18190;SDS011;47004;51.366;12.348;2022-09-09T04:33:29;2.57;;;1.57;;
18190;SDS011;47004;51.366;12.348;2022-09-09T04:35:31;3.80;;;1.70;;
18190;SDS011;47004;51.366;12.348;2022-09-09T04:37:33;3.80;;;1.87;;
18190;SDS011;47004;51.366;12.348;2022-09-09T04:39:35;4.60;;;2.27;;
18190;SDS011;47004;51.366;12.348;2022-09-09T04:41:37;2.87;;;1.90;;
18190;SDS011;47004;51.366;12.348;2022-09-09T04:43:40;5.20;;;1.97;;
18190;SDS011;47004;51.366;12.348;2022-09-09T04:45:42;4.60;;;1.57;;
18190;SDS011;47004;51.366;12.348;2022-09-09T04:47:45;2.27;;;1.60;;
18190;SDS011;47004;51.366;12.348;2022-09-09T04:49:46;3.10;;;2.10;;
18190;SDS011;47004;51.366;12.348;2022-09-09T04:51:48;5.23;;;2.13;;
18190;SDS011;47004;51.366;12.348;2022-09-09T04:53:50;2.80;;;1.57;;
18190;SDS011;47004;51.366;12.348;2022-09-09T04:56:00;1.53;;;1.40;;
18190;SDS011;47004;51.366;12.348;2022-09-09T04:58:03;2.00;;;1.40;;
18190;SDS011;47004;51.366;12.348;2022-09-09T05:00:08;4.07;;;2.27;;
18190;SDS011;47004;51.366;12.348;2022-09-09T05:02:11;4.63;;;2.50;;
18190;SDS011;47004;51.366;12.348;2022-09-09T05:04:13;3.17;;;2.23;;
18190;SDS011;47004;51.366;12.348;2022-09-09T05:06:16;2.90;;;1.83;;
18190;SDS011;47004;51.366;12.348;2022-09-09T05:08:19;5.07;;;2.10;;
18190;SDS011;47004;51.366;12.348;2022-09-09T05:10:21;2.80;;;1.80;;
18190;SDS011;47004;51.366;12.348;2022-09-09T05:12:23;1.83;;;1.63;;
18190;SDS011;47004;51.366;12.348;2022-09-09T05:14:26;2.93;;;1.97;;
18190;SDS011;47004;51.366;12.348;2022-09-09T05:16:30;3.27;;;1.70;;
18190;SDS011;47004;51.366;12.348;2022-09-09T05:18:32;3.00;;;1.47;;
18190;SDS011;47004;51.366;12.348;2022-09-09T05:20:34;2.30;;;1.67;;
18190;SDS011;47004;51.366;12.348;2022-09-09T05:22:37;5.07;;;2.50;;
18190;SDS011;47004;51.366;12.348;2022-09-09T05:24:39;2.97;;;1.70;;
18190;SDS011;47004;51.366;12.348;2022-09-09T05:26:41;3.43;;;1.80;;
18190;SDS011;47004;51.366;12.348;2022-09-09T05:28:43;2.53;;;1.53;;
18190;SDS011;47004;51.366;12.348;2022-09-09T05:30:45;3.10;;;1.43;;
18190;SDS011;47004;51.366;12.348;2022-09-09T05:32:48;2.90;;;1.57;;
18190;SDS011;47004;51.366;12.348;2022-09-09T05:34:51;4.33;;;1.53;;
18190;SDS011;47004;51.366;12.348;2022-09-09T05:36:53;1.80;;;1.50;;
18190;SDS011;47004;51.366;12.348;2022-09-09T05:38:55;2.70;;;1.40;;
18190;SDS011;47004;51.366;12.348;2022-09-09T05:40:57;4.57;;;1.47;;
18190;SDS011;47004;51.366;12.348;2022-09-09T05:43:00;2.40;;;1.43;;
18190;SDS011;47004;51.366;12.348;2022-09-09T05:45:03;4.13;;;1.40;;
18190;SDS011;47004;51.366;12.348;2022-09-09T05:47:05;1.63;;;1.20;;
18190;SDS011;47004;51.366;12.348;2022-09-09T05:49:09;5.60;;;1.33;;
18190;SDS011;47004;51.366;12.348;2022-09-09T05:51:12;3.87;;;1.50;;
18190;SDS011;47004;51.366;12.348;2022-09-09T05:53:16;2.40;;;1.40;;
18190;SDS011;47004;51.366;12.348;2022-09-09T05:55:19;2.13;;;1.50;;
18190;SDS011;47004;51.366;12.348;2022-09-09T05:57:21;2.10;;;1.40;;
18190;SDS011;47004;51.366;12.348;2022-09-09T05:59:23;3.13;;;1.93;;
18190;SDS011;47004;51.366;12.348;2022-09-09T06:01:25;3.90;;;1.73;;
18190;SDS011;47004;51.366;12.348;2022-09-09T06:03:28;10.17;;;5.57;;
18190;SDS011;47004;51.366;12.348;2022-09-09T06:05:32;5.67;;;3.23;;
18190;SDS011;47004;51.366;12.348;2022-09-09T06:07:35;4.90;;;2.63;;
18190;SDS011;47004;51.366;12.348;2022-09-09T06:09:37;3.77;;;2.37;;
18190;SDS011;47004;51.366;12.348;2022-09-09T06:11:39;4.27;;;1.70;;
18190;SDS011;47004;51.366;12.348;2022-09-09T06:13:42;1.97;;;1.27;;
18190;SDS011;47004;51.366;12.348;2022-09-09T06:15:50;2.33;;;1.57;;
18190;SDS011;47004;51.366;12.348;2022-09-09T06:17:53;1.57;;;1.30;;
18190;SDS011;47004;51.366;12.348;2022-09-09T06:19:56;2.17;;;1.27;;
18190;SDS011;47004;51.366;12.348;2022-09-09T06:21:59;2.70;;;1.40;;
18190;SDS011;47004;51.366;12.348;2022-09-09T06:24:02;2.60;;;1.13;;
18190;SDS011;47004;51.366;12.348;2022-09-09T06:26:05;3.37;;;1.47;;
18190;SDS011;47004;51.366;12.348;2022-09-09T06:28:09;3.83;;;1.63;;
18190;SDS011;47004;51.366;12.348;2022-09-09T06:30:11;3.13;;;1.43;;
18190;SDS011;47004;51.366;12.348;2022-09-09T06:32:14;2.23;;;1.17;;
18190;SDS011;47004;51.366;12.348;2022-09-09T06:34:15;2.03;;;1.10;;
18190;SDS011;47004;51.366;12.348;2022-09-09T06:36:18;2.10;;;1.10;;
18190;SDS011;47004;51.366;12.348;2022-09-09T06:38:22;1.97;;;1.20;;
18190;SDS011;47004;51.366;12.348;2022-09-09T06:40:24;3.27;;;1.20;;
18190;SDS011;47004;51.366;12.348;2022-09-09T06:42:27;3.33;;;1.20;;
18190;SDS011;47004;51.366;12.348;2022-09-09T06:44:29;3.20;;;1.30;;
18190;SDS011;47004;51.366;12.348;2022-09-09T06:46:31;2.43;;;1.10;;
18190;SDS011;47004;51.366;12.348;2022-09-09T06:48:35;2.27;;;1.40;;
18190;SDS011;47004;51.366;12.348;2022-09-09T06:50:37;2.03;;;1.10;;
18190;SDS011;47004;51.366;12.348;2022-09-09T06:52:39;1.10;;;0.80;;
18190;SDS011;47004;51.366;12.348;2022-09-09T06:54:42;4.07;;;0.90;;
18190;SDS011;47004;51.366;12.348;2022-09-09T06:56:45;1.97;;;1.20;;
18190;SDS011;47004;51.366;12.348;2022-09-09T06:58:47;1.23;;;1.07;;
18190;SDS011;47004;51.366;12.348;2022-09-09T07:00:49;2.23;;;1.30;;
18190;SDS011;47004;51.366;12.348;2022-09-09T07:02:51;2.57;;;1.37;;
18190;SDS011;47004;51.366;12.348;2022-09-09T07:04:52;1.13;;;0.80;;
18190;SDS011;47004;51.366;12.348;2022-09-09T07:06:54;1.23;;;0.90;;
18190;SDS011;47004;51.366;12.348;2022-09-09T07:08:57;2.83;;;1.10;;
18190;SDS011;47004;51.366;12.348;2022-09-09T07:11:03;3.07;;;1.03;;
18190;SDS011;47004;51.366;12.348;2022-09-09T07:13:05;3.17;;;1.13;;
18190;SDS011;47004;51.366;12.348;2022-09-09T07:15:08;1.93;;;0.90;;
18190;SDS011;47004;51.366;12.348;2022-09-09T07:17:13;2.23;;;1.00;;
18190;SDS011;47004;51.366;12.348;2022-09-09T07:19:15;2.50;;;1.17;;
18190;SDS011;47004;51.366;12.348;2022-09-09T07:21:18;1.97;;;1.00;;
18190;SDS011;47004;51.366;12.348;2022-09-09T07:23:21;1.93;;;1.07;;
18190;SDS011;47004;51.366;12.348;2022-09-09T07:25:24;3.77;;;1.40;;
18190;SDS011;47004;51.366;12.348;2022-09-09T07:27:31;1.23;;;0.90;;
18190;SDS011;47004;51.366;12.348;2022-09-09T07:29:33;5.33;;;0.93;;
18190;SDS011;47004;51.366;12.348;2022-09-09T07:31:36;8.43;;;1.43;;
18190;SDS011;47004;51.366;12.348;2022-09-09T07:33:39;2.93;;;1.30;;
18190;SDS011;47004;51.366;12.348;2022-09-09T07:35:41;6.57;;;1.50;;
18190;SDS011;47004;51.366;12.348;2022-09-09T07:37:43;1.70;;;0.97;;
18190;SDS011;47004;51.366;12.348;2022-09-09T07:39:45;5.87;;;1.37;;
18190;SDS011;47004;51.366;12.348;2022-09-09T07:41:47;3.90;;;1.30;;
18190;SDS011;47004;51.366;12.348;2022-09-09T07:43:52;3.33;;;1.20;;
18190;SDS011;47004;51.366;12.348;2022-09-09T07:45:56;3.47;;;1.03;;
18190;SDS011;47004;51.366;12.348;2022-09-09T07:47:58;3.03;;;1.30;;
18190;SDS011;47004;51.366;12.348;2022-09-09T07:50:00;4.73;;;1.20;;
18190;SDS011;47004;51.366;12.348;2022-09-09T07:52:02;4.37;;;1.30;;
18190;SDS011;47004;51.366;12.348;2022-09-09T07:54:05;3.67;;;1.17;;
18190;SDS011;47004;51.366;12.348;2022-09-09T07:56:10;3.10;;;1.10;;
18190;SDS011;47004;51.366;12.348;2022-09-09T07:58:13;3.47;;;1.07;;
18190;SDS011;47004;51.366;12.348;2022-09-09T08:00:16;2.23;;;1.13;;
18190;SDS011;47004;51.366;12.348;2022-09-09T08:02:18;3.53;;;1.30;;
18190;SDS011;47004;51.366;12.348;2022-09-09T08:04:20;2.43;;;1.00;;
18190;SDS011;47004;51.366;12.348;2022-09-09T08:06:24;2.63;;;1.20;;
18190;SDS011;47004;51.366;12.348;2022-09-09T08:08:27;4.47;;;1.20;;
18190;SDS011;47004;51.366;12.348;2022-09-09T08:10:29;2.67;;;1.03;;
18190;SDS011;47004;51.366;12.348;2022-09-09T08:12:31;2.60;;;1.03;;
18190;SDS011;47004;51.366;12.348;2022-09-09T08:14:34;3.47;;;1.30;;
18190;SDS011;47004;51.366;12.348;2022-09-09T08:16:38;2.47;;;0.97;;
18190;SDS011;47004;51.366;12.348;2022-09-09T08:18:41;3.60;;;0.83;;
18190;SDS011;47004;51.366;12.348;2022-09-09T08:20:44;4.33;;;1.00;;
18190;SDS011;47004;51.366;12.348;2022-09-09T08:22:45;2.13;;;1.00;;
18190;SDS011;47004;51.366;12.348;2022-09-09T08:24:48;9.33;;;1.13;;
18190;SDS011;47004;51.366;12.348;2022-09-09T08:26:50;3.60;;;1.07;;
18190;SDS011;47004;51.366;12.348;2022-09-09T08:28:52;1.80;;;0.87;;
18190;SDS011;47004;51.366;12.348;2022-09-09T08:30:56;1.77;;;0.93;;
18190;SDS011;47004;51.366;12.348;2022-09-09T08:33:10;1.37;;;0.80;;
18190;SDS011;47004;51.366;12.348;2022-09-09T08:35:12;4.20;;;1.10;;
18190;SDS011;47004;51.366;12.348;2022-09-09T08:37:13;4.33;;;1.40;;
18190;SDS011;47004;51.366;12.348;2022-09-09T08:39:16;1.73;;;1.00;;
18190;SDS011;47004;51.366;12.348;2022-09-09T08:44:03;1.73;;;1.10;;
18190;SDS011;47004;51.366;12.348;2022-09-09T08:46:09;3.83;;;0.97;;
18190;SDS011;47004;51.366;12.348;2022-09-09T08:48:21;4.87;;;1.07;;
18190;SDS011;47004;51.366;12.348;2022-09-09T08:50:33;2.90;;;1.17;;
18190;SDS011;47004;51.366;12.348;2022-09-09T08:52:39;1.53;;;1.13;;
18190;SDS011;47004;51.366;12.348;2022-09-09T08:54:45;2.90;;;0.90;;
18190;SDS011;47004;51.366;12.348;2022-09-09T08:56:48;4.83;;;1.13;;
18190;SDS011;47004;51.366;12.348;2022-09-09T08:58:51;4.50;;;1.00;;
18190;SDS011;47004;51.366;12.348;2022-09-09T09:01:00;2.43;;;1.20;;
18190;SDS011;47004;51.366;12.348;2022-09-09T09:03:18;3.43;;;1.20;;
18190;SDS011;47004;51.366;12.348;2022-09-09T09:05:30;2.60;;;1.17;;
18190;SDS011;47004;51.366;12.348;2022-09-09T09:07:43;1.97;;;0.90;;
18190;SDS011;47004;51.366;12.348;2022-09-09T09:09:56;3.83;;;1.20;;
18190;SDS011;47004;51.366;12.348;2022-09-09T09:12:07;2.00;;;0.73;;
18190;SDS011;47004;51.366;12.348;2022-09-09T09:14:17;4.03;;;0.97;;
18190;SDS011;47004;51.366;12.348;2022-09-09T09:16:23;2.30;;;1.00;;
18190;SDS011;47004;51.366;12.348;2022-09-09T09:18:34;2.13;;;0.90;;
18190;SDS011;47004;51.366;12.348;2022-09-09T09:20:39;3.10;;;0.90;;
18190;SDS011;47004;51.366;12.348;2022-09-09T09:22:48;3.17;;;0.90;;
18190;SDS011;47004;51.366;12.348;2022-09-09T09:24:52;2.00;;;0.90;;
18190;SDS011;47004;51.366;12.348;2022-09-09T09:26:55;2.00;;;1.00;;
18190;SDS011;47004;51.366;12.348;2022-09-09T09:28:58;4.00;;;1.00;;
18190;SDS011;47004;51.366;12.348;2022-09-09T09:31:03;2.83;;;0.87;;
18190;SDS011;47004;51.366;12.348;2022-09-09T09:33:08;3.33;;;1.20;;
18190;SDS011;47004;51.366;12.348;2022-09-09T09:35:18;2.47;;;1.00;;
18190;SDS011;47004;51.366;12.348;2022-09-09T09:37:21;4.00;;;0.90;;
18190;SDS011;47004;51.366;12.348;2022-09-09T09:39:28;2.23;;;0.83;;
18190;SDS011;47004;51.366;12.348;2022-09-09T09:41:36;4.70;;;1.10;;
18190;SDS011;47004;51.366;12.348;2022-09-09T09:43:40;3.17;;;1.00;;
18190;SDS011;47004;51.366;12.348;2022-09-09T09:45:43;4.07;;;0.90;;
18190;SDS011;47004;51.366;12.348;2022-09-09T09:47:45;5.63;;;0.97;;
18190;SDS011;47004;51.366;12.348;2022-09-09T09:49:51;2.30;;;1.13;;
18190;SDS011;47004;51.366;12.348;2022-09-09T09:51:55;4.67;;;1.10;;
18190;SDS011;47004;51.366;12.348;2022-09-09T09:54:14;5.00;;;1.20;;
18190;SDS011;47004;51.366;12.348;2022-09-09T09:56:26;4.13;;;1.20;;
18190;SDS011;47004;51.366;12.348;2022-09-09T09:58:30;4.10;;;1.20;;
18190;SDS011;47004;51.366;12.348;2022-09-09T10:00:33;5.50;;;0.90;;
18190;SDS011;47004;51.366;12.348;2022-09-09T10:02:37;1.70;;;0.73;;
18190;SDS011;47004;51.366;12.348;2022-09-09T10:04:43;4.47;;;1.20;;
18190;SDS011;47004;51.366;12.348;2022-09-09T10:06:46;2.17;;;0.70;;
18190;SDS011;47004;51.366;12.348;2022-09-09T10:08:50;4.17;;;1.00;;
18190;SDS011;47004;51.366;12.348;2022-09-09T10:10:55;2.63;;;0.83;;
18190;SDS011;47004;51.366;12.348;2022-09-09T10:13:20;1.30;;;0.90;;
18190;SDS011;47004;51.366;12.348;2022-09-09T10:15:30;3.37;;;1.10;;
18190;SDS011;47004;51.366;12.348;2022-09-09T10:17:53;4.63;;;1.00;;
18190;SDS011;47004;51.366;12.348;2022-09-09T10:20:10;3.33;;;1.10;;
18190;SDS011;47004;51.366;12.348;2022-09-09T10:22:26;2.73;;;1.07;;
18190;SDS011;47004;51.366;12.348;2022-09-09T10:27:03;3.70;;;0.90;;
18190;SDS011;47004;51.366;12.348;2022-09-09T10:29:22;2.60;;;1.10;;
18190;SDS011;47004;51.366;12.348;2022-09-09T10:31:34;5.73;;;1.80;;
18190;SDS011;47004;51.366;12.348;2022-09-09T10:33:45;3.47;;;1.00;;
18190;SDS011;47004;51.366;12.348;2022-09-09T10:35:52;2.40;;;1.10;;
18190;SDS011;47004;51.366;12.348;2022-09-09T10:38:10;3.13;;;1.20;;
18190;SDS011;47004;51.366;12.348;2022-09-09T10:40:22;4.00;;;1.00;;
18190;SDS011;47004;51.366;12.348;2022-09-09T10:42:31;1.73;;;1.10;;
18190;SDS011;47004;51.366;12.348;2022-09-09T10:47:12;2.47;;;0.83;;
18190;SDS011;47004;51.366;12.348;2022-09-09T10:49:27;1.60;;;0.93;;
18190;SDS011;47004;51.366;12.348;2022-09-09T10:51:51;1.17;;;0.80;;
18190;SDS011;47004;51.366;12.348;2022-09-09T10:54:06;1.87;;;0.80;;
18190;SDS011;47004;51.366;12.348;2022-09-09T10:56:20;5.47;;;1.20;;
18190;SDS011;47004;51.366;12.348;2022-09-09T10:58:26;3.20;;;0.97;;
18190;SDS011;47004;51.366;12.348;2022-09-09T11:00:36;4.47;;;1.10;;
18190;SDS011;47004;51.366;12.348;2022-09-09T11:02:43;3.00;;;1.00;;
18190;SDS011;47004;51.366;12.348;2022-09-09T11:04:45;3.07;;;1.00;;
18190;SDS011;47004;51.366;12.348;2022-09-09T11:06:53;1.77;;;0.70;;
18190;SDS011;47004;51.366;12.348;2022-09-09T11:08:57;2.07;;;0.90;;
18190;SDS011;47004;51.366;12.348;2022-09-09T11:11:02;3.17;;;0.90;;
18190;SDS011;47004;51.366;12.348;2022-09-09T11:13:09;1.27;;;0.80;;
18190;SDS011;47004;51.366;12.348;2022-09-09T11:15:18;1.80;;;0.90;;
18190;SDS011;47004;51.366;12.348;2022-09-09T11:17:26;1.57;;;0.87;;
18190;SDS011;47004;51.366;12.348;2022-09-09T11:19:35;0.93;;;0.63;;
18190;SDS011;47004;51.366;12.348;2022-09-09T11:21:41;2.23;;;0.90;;
18190;SDS011;47004;51.366;12.348;2022-09-09T11:23:48;2.20;;;0.90;;
18190;SDS011;47004;51.366;12.348;2022-09-09T11:25:54;2.00;;;1.00;;
18190;SDS011;47004;51.366;12.348;2022-09-09T11:28:04;1.73;;;1.03;;
18190;SDS011;47004;51.366;12.348;2022-09-09T11:30:22;2.53;;;1.00;;
18190;SDS011;47004;51.366;12.348;2022-09-09T11:32:34;3.23;;;0.80;;
18190;SDS011;47004;51.366;12.348;2022-09-09T11:34:52;2.83;;;1.07;;
18190;SDS011;47004;51.366;12.348;2022-09-09T11:37:15;3.30;;;0.90;;
18190;SDS011;47004;51.366;12.348;2022-09-09T11:42:05;4.97;;;1.00;;
18190;SDS011;47004;51.366;12.348;2022-09-09T11:44:11;3.17;;;0.80;;
18190;SDS011;47004;51.366;12.348;2022-09-09T11:46:18;3.83;;;1.00;;
18190;SDS011;47004;51.366;12.348;2022-09-09T11:48:24;4.23;;;0.80;;
18190;SDS011;47004;51.366;12.348;2022-09-09T11:50:31;4.07;;;1.10;;
18190;SDS011;47004;51.366;12.348;2022-09-09T11:52:36;3.37;;;0.80;;
18190;SDS011;47004;51.366;12.348;2022-09-09T11:54:44;4.77;;;1.00;;
18190;SDS011;47004;51.366;12.348;2022-09-09T11:56:48;2.67;;;0.83;;
18190;SDS011;47004;51.366;12.348;2022-09-09T11:58:53;4.60;;;0.90;;
18190;SDS011;47004;51.366;12.348;2022-09-09T12:00:59;3.90;;;0.80;;
18190;SDS011;47004;51.366;12.348;2022-09-09T12:03:01;1.63;;;0.67;;
18190;SDS011;47004;51.366;12.348;2022-09-09T12:05:05;2.37;;;0.90;;
18190;SDS011;47004;51.366;12.348;2022-09-09T12:07:22;3.43;;;0.93;;
18190;SDS011;47004;51.366;12.348;2022-09-09T12:09:43;4.80;;;0.80;;
18190;SDS011;47004;51.366;12.348;2022-09-09T12:11:48;4.00;;;1.00;;
18190;SDS011;47004;51.366;12.348;2022-09-09T12:13:54;3.20;;;0.80;;
18190;SDS011;47004;51.366;12.348;2022-09-09T12:15:57;3.57;;;1.00;;
18190;SDS011;47004;51.366;12.348;2022-09-09T12:18:01;2.77;;;1.00;;
18190;SDS011;47004;51.366;12.348;2022-09-09T12:20:06;3.17;;;0.80;;
18190;SDS011;47004;51.366;12.348;2022-09-09T12:22:16;2.07;;;0.80;;
18190;SDS011;47004;51.366;12.348;2022-09-09T12:24:30;5.23;;;0.90;;
18190;SDS011;47004;51.366;12.348;2022-09-09T12:26:39;2.37;;;0.90;;
18190;SDS011;47004;51.366;12.348;2022-09-09T12:28:49;1.50;;;0.63;;
18190;SDS011;47004;51.366;12.348;2022-09-09T12:31:00;2.97;;;0.87;;
18190;SDS011;47004;51.366;12.348;2022-09-09T12:33:11;4.00;;;1.00;;
18190;SDS011;47004;51.366;12.348;2022-09-09T12:35:18;3.53;;;0.70;;
18190;SDS011;47004;51.366;12.348;2022-09-09T12:37:26;3.28;;;0.70;;